sensor_id;sensor_type;location;lat;lon;timestamp;P1;durP1;ratioP1;P2;durP2;ratioP2
13218;SDS011;6674;49.152;11.918;2022-09-29T00:01:16;4.93;;;4.43;;
13218;SDS011;6674;49.152;11.918;2022-09-29T00:03:44;4.93;;;4.40;;
13218;SDS011;6674;49.152;11.918;2022-09-29T00:06:12;4.90;;;4.40;;
13218;SDS011;6674;49.152;11.918;2022-09-29T00:08:40;5.77;;;4.80;;
13218;SDS011;6674;49.152;11.918;2022-09-29T00:11:07;6.10;;;5.07;;
13218;SDS011;6674;49.152;11.918;2022-09-29T00:13:34;7.77;;;4.70;;
13218;SDS011;6674;49.152;11.918;2022-09-29T00:16:01;5.37;;;4.87;;
13218;SDS011;6674;49.152;11.918;2022-09-29T00:18:29;5.67;;;4.53;;
13218;SDS011;6674;49.152;11.918;2022-09-29T00:20:59;5.17;;;4.47;;
13218;SDS011;6674;49.152;11.918;2022-09-29T00:23:29;5.80;;;4.70;;
13218;SDS011;6674;49.152;11.918;2022-09-29T00:26:00;6.87;;;5.30;;
13218;SDS011;6674;49.152;11.918;2022-09-29T00:28:29;7.33;;;4.73;;
13218;SDS011;6674;49.152;11.918;2022-09-29T00:30:56;7.47;;;5.83;;
13218;SDS011;6674;49.152;11.918;2022-09-29T00:33:24;7.83;;;6.03;;
13218;SDS011;6674;49.152;11.918;2022-09-29T00:35:59;7.03;;;6.33;;
13218;SDS011;6674;49.152;11.918;2022-09-29T00:38:28;7.23;;;6.10;;
13218;SDS011;6674;49.152;11.918;2022-09-29T00:40:55;6.77;;;5.97;;
13218;SDS011;6674;49.152;11.918;2022-09-29T00:43:23;6.97;;;6.23;;
13218;SDS011;6674;49.152;11.918;2022-09-29T00:46:10;6.77;;;6.17;;
13218;SDS011;6674;49.152;11.918;2022-09-29T00:48:38;6.77;;;5.70;;
13218;SDS011;6674;49.152;11.918;2022-09-29T00:51:07;6.60;;;6.00;;
13218;SDS011;6674;49.152;11.918;2022-09-29T00:53:34;6.83;;;6.10;;
13218;SDS011;6674;49.152;11.918;2022-09-29T00:56:02;6.33;;;5.77;;
13218;SDS011;6674;49.152;11.918;2022-09-29T00:58:33;6.70;;;6.00;;
13218;SDS011;6674;49.152;11.918;2022-09-29T01:01:01;7.83;;;6.17;;
13218;SDS011;6674;49.152;11.918;2022-09-29T01:03:30;6.73;;;5.93;;
13218;SDS011;6674;49.152;11.918;2022-09-29T01:06:02;6.47;;;5.87;;
13218;SDS011;6674;49.152;11.918;2022-09-29T01:08:38;6.47;;;5.87;;
13218;SDS011;6674;49.152;11.918;2022-09-29T01:11:08;6.87;;;6.23;;
13218;SDS011;6674;49.152;11.918;2022-09-29T01:13:37;7.37;;;6.77;;
13218;SDS011;6674;49.152;11.918;2022-09-29T01:16:05;8.83;;;8.03;;
13218;SDS011;6674;49.152;11.918;2022-09-29T01:18:32;8.23;;;7.30;;
13218;SDS011;6674;49.152;11.918;2022-09-29T01:21:01;9.57;;;8.57;;
13218;SDS011;6674;49.152;11.918;2022-09-29T01:29:31;11.63;;;10.43;;
13218;SDS011;6674;49.152;11.918;2022-09-29T01:32:17;10.60;;;9.50;;
13218;SDS011;6674;49.152;11.918;2022-09-29T01:34:47;12.20;;;11.00;;
13218;SDS011;6674;49.152;11.918;2022-09-29T01:37:20;15.40;;;12.77;;
13218;SDS011;6674;49.152;11.918;2022-09-29T01:39:56;15.13;;;12.23;;
13218;SDS011;6674;49.152;11.918;2022-09-29T01:42:29;13.53;;;11.80;;
13218;SDS011;6674;49.152;11.918;2022-09-29T01:45:04;14.30;;;12.67;;
13218;SDS011;6674;49.152;11.918;2022-09-29T01:47:40;14.53;;;12.97;;
13218;SDS011;6674;49.152;11.918;2022-09-29T01:50:10;15.53;;;12.67;;
13218;SDS011;6674;49.152;11.918;2022-09-29T01:52:40;15.60;;;13.93;;
13218;SDS011;6674;49.152;11.918;2022-09-29T01:55:10;16.73;;;14.93;;
13218;SDS011;6674;49.152;11.918;2022-09-29T01:57:38;15.27;;;13.67;;
13218;SDS011;6674;49.152;11.918;2022-09-29T02:00:12;15.30;;;13.70;;
13218;SDS011;6674;49.152;11.918;2022-09-29T02:02:43;17.43;;;14.27;;
13218;SDS011;6674;49.152;11.918;2022-09-29T02:05:14;17.40;;;15.43;;
13218;SDS011;6674;49.152;11.918;2022-09-29T02:07:44;14.83;;;13.27;;
13218;SDS011;6674;49.152;11.918;2022-09-29T02:10:15;15.73;;;13.97;;
13218;SDS011;6674;49.152;11.918;2022-09-29T02:12:44;18.13;;;15.03;;
13218;SDS011;6674;49.152;11.918;2022-09-29T02:15:16;16.10;;;14.40;;
13218;SDS011;6674;49.152;11.918;2022-09-29T02:17:48;16.23;;;14.50;;
13218;SDS011;6674;49.152;11.918;2022-09-29T02:20:16;14.67;;;13.10;;
13218;SDS011;6674;49.152;11.918;2022-09-29T02:22:43;13.50;;;12.07;;
13218;SDS011;6674;49.152;11.918;2022-09-29T02:25:10;16.80;;;15.03;;
13218;SDS011;6674;49.152;11.918;2022-09-29T02:27:39;16.63;;;14.70;;
13218;SDS011;6674;49.152;11.918;2022-09-29T02:30:06;14.73;;;13.00;;
13218;SDS011;6674;49.152;11.918;2022-09-29T02:32:34;15.10;;;13.50;;
13218;SDS011;6674;49.152;11.918;2022-09-29T02:35:02;14.47;;;12.93;;
13218;SDS011;6674;49.152;11.918;2022-09-29T02:37:38;18.27;;;14.80;;
13218;SDS011;6674;49.152;11.918;2022-09-29T02:40:17;32.20;;;16.30;;
13218;SDS011;6674;49.152;11.918;2022-09-29T02:42:57;14.43;;;12.53;;
13218;SDS011;6674;49.152;11.918;2022-09-29T02:45:52;12.60;;;11.40;;
13218;SDS011;6674;49.152;11.918;2022-09-29T02:48:40;12.03;;;10.83;;
13218;SDS011;6674;49.152;11.918;2022-09-29T02:51:18;10.37;;;9.37;;
13218;SDS011;6674;49.152;11.918;2022-09-29T02:53:51;12.00;;;10.87;;
13218;SDS011;6674;49.152;11.918;2022-09-29T02:56:25;13.10;;;11.80;;
13218;SDS011;6674;49.152;11.918;2022-09-29T02:58:58;37.27;;;13.90;;
13218;SDS011;6674;49.152;11.918;2022-09-29T03:01:31;10.77;;;9.77;;
13218;SDS011;6674;49.152;11.918;2022-09-29T03:03:59;11.30;;;10.20;;
13218;SDS011;6674;49.152;11.918;2022-09-29T03:06:27;10.00;;;9.10;;
13218;SDS011;6674;49.152;11.918;2022-09-29T03:08:54;11.00;;;10.00;;
13218;SDS011;6674;49.152;11.918;2022-09-29T03:11:21;9.60;;;8.77;;
13218;SDS011;6674;49.152;11.918;2022-09-29T03:13:48;14.53;;;11.53;;
13218;SDS011;6674;49.152;11.918;2022-09-29T03:16:15;73.70;;;12.93;;
13218;SDS011;6674;49.152;11.918;2022-09-29T03:18:41;35.40;;;10.37;;
13218;SDS011;6674;49.152;11.918;2022-09-29T03:21:08;9.73;;;8.83;;
13218;SDS011;6674;49.152;11.918;2022-09-29T03:23:36;9.07;;;8.17;;
13218;SDS011;6674;49.152;11.918;2022-09-29T03:26:03;10.87;;;9.70;;
13218;SDS011;6674;49.152;11.918;2022-09-29T03:28:30;64.00;;;13.47;;
13218;SDS011;6674;49.152;11.918;2022-09-29T03:31:02;149.50;;;16.70;;
13218;SDS011;6674;49.152;11.918;2022-09-29T03:33:29;8.57;;;7.87;;
13218;SDS011;6674;49.152;11.918;2022-09-29T03:35:56;7.77;;;7.07;;
13218;SDS011;6674;49.152;11.918;2022-09-29T03:38:23;7.77;;;7.07;;
13218;SDS011;6674;49.152;11.918;2022-09-29T03:40:51;8.93;;;8.17;;
13218;SDS011;6674;49.152;11.918;2022-09-29T03:43:17;9.60;;;8.57;;
13218;SDS011;6674;49.152;11.918;2022-09-29T03:45:47;12.33;;;9.47;;
13218;SDS011;6674;49.152;11.918;2022-09-29T03:48:14;17.30;;;9.03;;
13218;SDS011;6674;49.152;11.918;2022-09-29T03:50:41;7.80;;;7.10;;
13218;SDS011;6674;49.152;11.918;2022-09-29T03:53:09;7.97;;;7.27;;
13218;SDS011;6674;49.152;11.918;2022-09-29T03:55:36;6.87;;;6.33;;
13218;SDS011;6674;49.152;11.918;2022-09-29T03:58:04;7.83;;;7.07;;
13218;SDS011;6674;49.152;11.918;2022-09-29T04:00:31;11.47;;;8.57;;
13218;SDS011;6674;49.152;11.918;2022-09-29T04:02:58;9.97;;;8.97;;
13218;SDS011;6674;49.152;11.918;2022-09-29T04:05:24;35.37;;;10.07;;
13218;SDS011;6674;49.152;11.918;2022-09-29T04:07:53;12.03;;;8.43;;
13218;SDS011;6674;49.152;11.918;2022-09-29T04:10:20;231.40;;;18.03;;
13218;SDS011;6674;49.152;11.918;2022-09-29T04:12:47;7.20;;;6.60;;
13218;SDS011;6674;49.152;11.918;2022-09-29T04:15:16;6.43;;;5.93;;
13218;SDS011;6674;49.152;11.918;2022-09-29T04:17:42;7.50;;;6.87;;
13218;SDS011;6674;49.152;11.918;2022-09-29T04:20:09;8.53;;;7.80;;
13218;SDS011;6674;49.152;11.918;2022-09-29T04:22:35;120.97;;;14.73;;
13218;SDS011;6674;49.152;11.918;2022-09-29T04:25:02;14.67;;;8.73;;
13218;SDS011;6674;49.152;11.918;2022-09-29T04:27:29;8.40;;;7.17;;
13218;SDS011;6674;49.152;11.918;2022-09-29T04:29:55;8.57;;;7.77;;
13218;SDS011;6674;49.152;11.918;2022-09-29T04:32:23;9.77;;;8.90;;
13218;SDS011;6674;49.152;11.918;2022-09-29T04:34:50;8.77;;;7.97;;
13218;SDS011;6674;49.152;11.918;2022-09-29T04:37:17;8.40;;;7.70;;
13218;SDS011;6674;49.152;11.918;2022-09-29T04:39:43;7.73;;;7.03;;
13218;SDS011;6674;49.152;11.918;2022-09-29T04:42:10;8.50;;;7.80;;
13218;SDS011;6674;49.152;11.918;2022-09-29T04:44:37;7.80;;;7.10;;
13218;SDS011;6674;49.152;11.918;2022-09-29T04:47:04;8.20;;;7.40;;
13218;SDS011;6674;49.152;11.918;2022-09-29T04:49:32;8.20;;;7.50;;
13218;SDS011;6674;49.152;11.918;2022-09-29T04:51:58;6.80;;;6.20;;
13218;SDS011;6674;49.152;11.918;2022-09-29T04:54:28;7.67;;;6.97;;
13218;SDS011;6674;49.152;11.918;2022-09-29T04:56:56;8.20;;;7.40;;
13218;SDS011;6674;49.152;11.918;2022-09-29T04:59:23;13.27;;;8.77;;
13218;SDS011;6674;49.152;11.918;2022-09-29T05:01:50;9.83;;;8.83;;
13218;SDS011;6674;49.152;11.918;2022-09-29T05:04:16;19.70;;;9.53;;
13218;SDS011;6674;49.152;11.918;2022-09-29T05:06:44;43.70;;;10.43;;
13218;SDS011;6674;49.152;11.918;2022-09-29T05:09:11;8.07;;;7.37;;
13218;SDS011;6674;49.152;11.918;2022-09-29T05:11:38;8.00;;;7.30;;
13218;SDS011;6674;49.152;11.918;2022-09-29T05:14:05;8.03;;;7.33;;
13218;SDS011;6674;49.152;11.918;2022-09-29T05:16:31;8.60;;;7.80;;
13218;SDS011;6674;49.152;11.918;2022-09-29T05:18:58;8.03;;;7.33;;
13218;SDS011;6674;49.152;11.918;2022-09-29T05:21:25;7.03;;;6.43;;
13218;SDS011;6674;49.152;11.918;2022-09-29T05:23:53;7.23;;;6.63;;
13218;SDS011;6674;49.152;11.918;2022-09-29T05:26:19;9.57;;;8.67;;
13218;SDS011;6674;49.152;11.918;2022-09-29T05:28:46;189.20;;;16.33;;
13218;SDS011;6674;49.152;11.918;2022-09-29T05:31:14;244.60;;;19.20;;
13218;SDS011;6674;49.152;11.918;2022-09-29T05:33:41;9.40;;;8.50;;
13218;SDS011;6674;49.152;11.918;2022-09-29T05:36:09;6.30;;;5.80;;
13218;SDS011;6674;49.152;11.918;2022-09-29T05:38:37;7.83;;;7.13;;
13218;SDS011;6674;49.152;11.918;2022-09-29T05:41:06;7.53;;;6.83;;
13218;SDS011;6674;49.152;11.918;2022-09-29T05:43:34;7.50;;;6.77;;
13218;SDS011;6674;49.152;11.918;2022-09-29T05:46:01;6.40;;;5.90;;
13218;SDS011;6674;49.152;11.918;2022-09-29T05:48:28;6.83;;;6.23;;
13218;SDS011;6674;49.152;11.918;2022-09-29T05:50:55;7.63;;;7.03;;
13218;SDS011;6674;49.152;11.918;2022-09-29T05:53:22;8.00;;;7.30;;
13218;SDS011;6674;49.152;11.918;2022-09-29T05:55:49;7.90;;;7.20;;
13218;SDS011;6674;49.152;11.918;2022-09-29T05:58:17;11.37;;;8.70;;
13218;SDS011;6674;49.152;11.918;2022-09-29T06:00:44;9.00;;;8.20;;
13218;SDS011;6674;49.152;11.918;2022-09-29T06:03:10;9.53;;;8.63;;
13218;SDS011;6674;49.152;11.918;2022-09-29T06:05:37;80.47;;;13.90;;
13218;SDS011;6674;49.152;11.918;2022-09-29T06:08:05;44.03;;;11.13;;
13218;SDS011;6674;49.152;11.918;2022-09-29T06:10:32;11.07;;;9.00;;
13218;SDS011;6674;49.152;11.918;2022-09-29T06:12:59;9.73;;;8.73;;
13218;SDS011;6674;49.152;11.918;2022-09-29T06:15:28;121.30;;;15.10;;
13218;SDS011;6674;49.152;11.918;2022-09-29T06:17:55;9.60;;;8.60;;
13218;SDS011;6674;49.152;11.918;2022-09-29T06:20:22;8.63;;;7.83;;
13218;SDS011;6674;49.152;11.918;2022-09-29T06:22:49;9.70;;;8.70;;
13218;SDS011;6674;49.152;11.918;2022-09-29T06:25:18;58.90;;;12.53;;
13218;SDS011;6674;49.152;11.918;2022-09-29T06:27:44;57.73;;;13.23;;
13218;SDS011;6674;49.152;11.918;2022-09-29T06:30:12;12.10;;;10.00;;
13218;SDS011;6674;49.152;11.918;2022-09-29T06:32:40;11.33;;;10.13;;
13218;SDS011;6674;49.152;11.918;2022-09-29T06:35:07;22.83;;;11.00;;
13218;SDS011;6674;49.152;11.918;2022-09-29T06:37:51;9.40;;;8.43;;
13218;SDS011;6674;49.152;11.918;2022-09-29T06:40:20;10.63;;;9.53;;
13218;SDS011;6674;49.152;11.918;2022-09-29T06:42:47;13.60;;;11.50;;
13218;SDS011;6674;49.152;11.918;2022-09-29T06:45:14;12.70;;;10.87;;
13218;SDS011;6674;49.152;11.918;2022-09-29T06:47:42;14.33;;;12.53;;
13218;SDS011;6674;49.152;11.918;2022-09-29T06:50:08;16.23;;;14.60;;
13218;SDS011;6674;49.152;11.918;2022-09-29T06:52:35;14.40;;;12.97;;
13218;SDS011;6674;49.152;11.918;2022-09-29T06:55:01;16.03;;;14.40;;
13218;SDS011;6674;49.152;11.918;2022-09-29T06:57:28;15.27;;;13.60;;
13218;SDS011;6674;49.152;11.918;2022-09-29T06:59:55;12.77;;;11.37;;
13218;SDS011;6674;49.152;11.918;2022-09-29T07:02:22;13.50;;;12.10;;
13218;SDS011;6674;49.152;11.918;2022-09-29T07:04:50;14.60;;;13.00;;
13218;SDS011;6674;49.152;11.918;2022-09-29T07:07:16;12.10;;;10.90;;
13218;SDS011;6674;49.152;11.918;2022-09-29T07:09:43;13.27;;;11.87;;
13218;SDS011;6674;49.152;11.918;2022-09-29T07:12:09;14.40;;;12.77;;
13218;SDS011;6674;49.152;11.918;2022-09-29T07:14:37;13.40;;;12.07;;
13218;SDS011;6674;49.152;11.918;2022-09-29T07:17:03;13.37;;;12.07;;
13218;SDS011;6674;49.152;11.918;2022-09-29T07:19:30;11.30;;;10.20;;
13218;SDS011;6674;49.152;11.918;2022-09-29T07:21:58;9.43;;;8.53;;
13218;SDS011;6674;49.152;11.918;2022-09-29T07:24:25;15.37;;;13.77;;
13218;SDS011;6674;49.152;11.918;2022-09-29T07:26:52;13.20;;;11.77;;
13218;SDS011;6674;49.152;11.918;2022-09-29T07:29:18;12.53;;;11.27;;
13218;SDS011;6674;49.152;11.918;2022-09-29T07:31:45;15.43;;;13.90;;
13218;SDS011;6674;49.152;11.918;2022-09-29T07:34:13;17.23;;;14.50;;
13218;SDS011;6674;49.152;11.918;2022-09-29T07:36:39;15.17;;;13.67;;
13218;SDS011;6674;49.152;11.918;2022-09-29T07:39:07;17.87;;;16.07;;
13218;SDS011;6674;49.152;11.918;2022-09-29T07:41:34;14.90;;;13.50;;
13218;SDS011;6674;49.152;11.918;2022-09-29T07:44:01;17.80;;;15.90;;
13218;SDS011;6674;49.152;11.918;2022-09-29T07:46:28;18.93;;;16.93;;
13218;SDS011;6674;49.152;11.918;2022-09-29T07:48:56;16.53;;;14.83;;
13218;SDS011;6674;49.152;11.918;2022-09-29T07:51:23;17.00;;;15.40;;
13218;SDS011;6674;49.152;11.918;2022-09-29T07:53:50;18.20;;;15.73;;
13218;SDS011;6674;49.152;11.918;2022-09-29T07:56:18;18.37;;;16.57;;
13218;SDS011;6674;49.152;11.918;2022-09-29T07:58:46;14.27;;;12.87;;
13218;SDS011;6674;49.152;11.918;2022-09-29T08:01:15;14.93;;;13.53;;
13218;SDS011;6674;49.152;11.918;2022-09-29T08:03:44;11.90;;;10.87;;
13218;SDS011;6674;49.152;11.918;2022-09-29T08:06:15;13.37;;;12.17;;
13218;SDS011;6674;49.152;11.918;2022-09-29T08:08:42;12.10;;;11.00;;
13218;SDS011;6674;49.152;11.918;2022-09-29T08:11:09;13.23;;;11.93;;
13218;SDS011;6674;49.152;11.918;2022-09-29T08:13:39;13.63;;;12.33;;
13218;SDS011;6674;49.152;11.918;2022-09-29T08:16:07;13.03;;;11.83;;
13218;SDS011;6674;49.152;11.918;2022-09-29T08:18:36;12.23;;;11.17;;
13218;SDS011;6674;49.152;11.918;2022-09-29T08:21:03;14.00;;;12.70;;
13218;SDS011;6674;49.152;11.918;2022-09-29T08:23:33;13.90;;;12.70;;
13218;SDS011;6674;49.152;11.918;2022-09-29T08:26:01;13.83;;;12.63;;
13218;SDS011;6674;49.152;11.918;2022-09-29T08:28:29;16.03;;;14.57;;
13218;SDS011;6674;49.152;11.918;2022-09-29T08:30:59;16.23;;;14.80;;
13218;SDS011;6674;49.152;11.918;2022-09-29T08:33:27;14.90;;;13.53;;
13218;SDS011;6674;49.152;11.918;2022-09-29T08:35:55;16.40;;;14.87;;
13218;SDS011;6674;49.152;11.918;2022-09-29T08:38:22;18.27;;;16.37;;
13218;SDS011;6674;49.152;11.918;2022-09-29T08:40:49;16.07;;;14.47;;
13218;SDS011;6674;49.152;11.918;2022-09-29T08:43:17;17.63;;;16.00;;
13218;SDS011;6674;49.152;11.918;2022-09-29T08:45:48;14.30;;;12.93;;
13218;SDS011;6674;49.152;11.918;2022-09-29T08:48:22;16.23;;;14.63;;
13218;SDS011;6674;49.152;11.918;2022-09-29T08:50:51;14.63;;;13.33;;
13218;SDS011;6674;49.152;11.918;2022-09-29T08:53:22;14.97;;;13.67;;
13218;SDS011;6674;49.152;11.918;2022-09-29T08:55:53;14.77;;;13.30;;
13218;SDS011;6674;49.152;11.918;2022-09-29T08:58:22;15.50;;;13.90;;
13218;SDS011;6674;49.152;11.918;2022-09-29T09:00:52;16.57;;;14.77;;
13218;SDS011;6674;49.152;11.918;2022-09-29T09:03:36;15.53;;;14.03;;
13218;SDS011;6674;49.152;11.918;2022-09-29T09:06:28;13.80;;;12.60;;
13218;SDS011;6674;49.152;11.918;2022-09-29T09:09:05;12.47;;;11.27;;
13218;SDS011;6674;49.152;11.918;2022-09-29T09:11:45;11.83;;;10.73;;
13218;SDS011;6674;49.152;11.918;2022-09-29T09:14:31;11.43;;;10.43;;
13218;SDS011;6674;49.152;11.918;2022-09-29T09:17:16;16.13;;;14.50;;
13218;SDS011;6674;49.152;11.918;2022-09-29T09:19:59;14.10;;;12.90;;
13218;SDS011;6674;49.152;11.918;2022-09-29T09:22:37;13.47;;;12.37;;
13218;SDS011;6674;49.152;11.918;2022-09-29T09:25:18;11.30;;;10.30;;
13218;SDS011;6674;49.152;11.918;2022-09-29T09:27:52;14.07;;;12.90;;
13218;SDS011;6674;49.152;11.918;2022-09-29T09:30:30;11.37;;;10.37;;
13218;SDS011;6674;49.152;11.918;2022-09-29T09:33:04;14.57;;;13.37;;
13218;SDS011;6674;49.152;11.918;2022-09-29T09:35:35;12.80;;;11.63;;
13218;SDS011;6674;49.152;11.918;2022-09-29T09:38:09;11.07;;;10.03;;
13218;SDS011;6674;49.152;11.918;2022-09-29T09:40:41;10.83;;;9.93;;
13218;SDS011;6674;49.152;11.918;2022-09-29T09:43:11;10.93;;;10.03;;
13218;SDS011;6674;49.152;11.918;2022-09-29T09:45:44;10.67;;;9.67;;
13218;SDS011;6674;49.152;11.918;2022-09-29T09:48:15;10.30;;;9.40;;
13218;SDS011;6674;49.152;11.918;2022-09-29T09:50:48;11.23;;;10.23;;
13218;SDS011;6674;49.152;11.918;2022-09-29T09:53:18;9.80;;;8.90;;
13218;SDS011;6674;49.152;11.918;2022-09-29T09:55:49;10.53;;;9.63;;
13218;SDS011;6674;49.152;11.918;2022-09-29T09:58:33;10.80;;;9.77;;
13218;SDS011;6674;49.152;11.918;2022-09-29T10:01:09;10.57;;;9.67;;
13218;SDS011;6674;49.152;11.918;2022-09-29T10:03:36;9.17;;;8.47;;
13218;SDS011;6674;49.152;11.918;2022-09-29T10:06:05;9.00;;;8.30;;
13218;SDS011;6674;49.152;11.918;2022-09-29T10:08:34;7.43;;;6.83;;
13218;SDS011;6674;49.152;11.918;2022-09-29T10:11:04;10.80;;;9.97;;
13218;SDS011;6674;49.152;11.918;2022-09-29T10:13:43;9.10;;;8.20;;
13218;SDS011;6674;49.152;11.918;2022-09-29T10:16:12;10.10;;;9.20;;
13218;SDS011;6674;49.152;11.918;2022-09-29T10:18:42;8.17;;;7.47;;
13218;SDS011;6674;49.152;11.918;2022-09-29T10:21:20;7.70;;;7.00;;
13218;SDS011;6674;49.152;11.918;2022-09-29T10:23:51;9.50;;;8.70;;
13218;SDS011;6674;49.152;11.918;2022-09-29T10:26:18;9.47;;;8.57;;
13218;SDS011;6674;49.152;11.918;2022-09-29T10:28:51;8.67;;;7.87;;
13218;SDS011;6674;49.152;11.918;2022-09-29T10:31:20;7.30;;;6.70;;
13218;SDS011;6674;49.152;11.918;2022-09-29T10:33:50;8.37;;;7.67;;
13218;SDS011;6674;49.152;11.918;2022-09-29T10:36:21;8.13;;;7.53;;
13218;SDS011;6674;49.152;11.918;2022-09-29T10:38:48;9.33;;;8.43;;
13218;SDS011;6674;49.152;11.918;2022-09-29T10:41:16;7.50;;;6.83;;
13218;SDS011;6674;49.152;11.918;2022-09-29T10:43:44;7.63;;;7.03;;
13218;SDS011;6674;49.152;11.918;2022-09-29T10:49:08;7.60;;;7.00;;
13218;SDS011;6674;49.152;11.918;2022-09-29T10:51:39;7.47;;;6.87;;
13218;SDS011;6674;49.152;11.918;2022-09-29T10:54:07;6.40;;;5.90;;
13218;SDS011;6674;49.152;11.918;2022-09-29T10:56:36;6.90;;;6.40;;
13218;SDS011;6674;49.152;11.918;2022-09-29T10:59:11;7.30;;;6.60;;
13218;SDS011;6674;49.152;11.918;2022-09-29T11:01:42;7.20;;;6.50;;
13218;SDS011;6674;49.152;11.918;2022-09-29T11:04:14;6.90;;;6.20;;
13218;SDS011;6674;49.152;11.918;2022-09-29T11:06:46;5.93;;;5.43;;
13218;SDS011;6674;49.152;11.918;2022-09-29T11:09:29;6.57;;;5.93;;
13218;SDS011;6674;49.152;11.918;2022-09-29T11:12:01;6.10;;;5.70;;
13218;SDS011;6674;49.152;11.918;2022-09-29T11:14:29;6.27;;;5.67;;
13218;SDS011;6674;49.152;11.918;2022-09-29T11:16:57;5.70;;;5.30;;
13218;SDS011;6674;49.152;11.918;2022-09-29T11:19:27;4.67;;;4.37;;
13218;SDS011;6674;49.152;11.918;2022-09-29T11:25:04;5.73;;;5.23;;
13218;SDS011;6674;49.152;11.918;2022-09-29T11:27:42;5.20;;;4.80;;
13218;SDS011;6674;49.152;11.918;2022-09-29T11:30:20;5.20;;;4.80;;
13218;SDS011;6674;49.152;11.918;2022-09-29T11:32:56;6.10;;;5.40;;
13218;SDS011;6674;49.152;11.918;2022-09-29T11:35:44;5.30;;;4.87;;
13218;SDS011;6674;49.152;11.918;2022-09-29T11:38:21;5.60;;;4.73;;
13218;SDS011;6674;49.152;11.918;2022-09-29T11:41:00;4.90;;;4.50;;
13218;SDS011;6674;49.152;11.918;2022-09-29T11:43:40;5.70;;;5.20;;
13218;SDS011;6674;49.152;11.918;2022-09-29T11:46:13;4.40;;;4.00;;
13218;SDS011;6674;49.152;11.918;2022-09-29T11:49:05;5.53;;;5.03;;
13218;SDS011;6674;49.152;11.918;2022-09-29T11:51:44;5.73;;;5.03;;
13218;SDS011;6674;49.152;11.918;2022-09-29T11:54:27;4.57;;;4.27;;
13218;SDS011;6674;49.152;11.918;2022-09-29T11:57:04;4.07;;;3.77;;
13218;SDS011;6674;49.152;11.918;2022-09-29T11:59:45;4.30;;;4.00;;
13218;SDS011;6674;49.152;11.918;2022-09-29T12:02:27;4.80;;;4.40;;
13218;SDS011;6674;49.152;11.918;2022-09-29T12:05:20;4.20;;;3.60;;
13218;SDS011;6674;49.152;11.918;2022-09-29T12:07:53;4.50;;;4.10;;
13218;SDS011;6674;49.152;11.918;2022-09-29T12:13:20;4.43;;;4.03;;
13218;SDS011;6674;49.152;11.918;2022-09-29T12:15:55;3.60;;;3.30;;
13218;SDS011;6674;49.152;11.918;2022-09-29T12:18:25;3.80;;;3.50;;
13218;SDS011;6674;49.152;11.918;2022-09-29T12:20:58;4.07;;;3.67;;
13218;SDS011;6674;49.152;11.918;2022-09-29T12:23:26;5.23;;;3.83;;
13218;SDS011;6674;49.152;11.918;2022-09-29T12:25:59;3.93;;;3.00;;
13218;SDS011;6674;49.152;11.918;2022-09-29T12:28:31;4.37;;;3.40;;
13218;SDS011;6674;49.152;11.918;2022-09-29T12:31:03;4.23;;;3.43;;
13218;SDS011;6674;49.152;11.918;2022-09-29T12:33:37;4.13;;;3.73;;
13218;SDS011;6674;49.152;11.918;2022-09-29T12:36:09;4.00;;;3.40;;
13218;SDS011;6674;49.152;11.918;2022-09-29T12:39:02;3.30;;;3.00;;
13218;SDS011;6674;49.152;11.918;2022-09-29T12:41:37;3.80;;;3.47;;
13218;SDS011;6674;49.152;11.918;2022-09-29T12:44:12;5.10;;;3.43;;
13218;SDS011;6674;49.152;11.918;2022-09-29T12:46:42;3.90;;;3.60;;
13218;SDS011;6674;49.152;11.918;2022-09-29T12:49:13;3.30;;;3.00;;
13218;SDS011;6674;49.152;11.918;2022-09-29T12:51:49;3.93;;;3.63;;
13218;SDS011;6674;49.152;11.918;2022-09-29T12:54:17;3.80;;;3.50;;
13218;SDS011;6674;49.152;11.918;2022-09-29T12:56:52;3.67;;;3.37;;
13218;SDS011;6674;49.152;11.918;2022-09-29T12:59:31;2.70;;;2.50;;
13218;SDS011;6674;49.152;11.918;2022-09-29T13:02:04;3.50;;;3.17;;
13218;SDS011;6674;49.152;11.918;2022-09-29T13:04:52;3.43;;;3.13;;
13218;SDS011;6674;49.152;11.918;2022-09-29T13:10:39;3.17;;;2.83;;
13218;SDS011;6674;49.152;11.918;2022-09-29T13:13:34;3.77;;;3.13;;
13218;SDS011;6674;49.152;11.918;2022-09-29T13:19:11;4.60;;;3.80;;
13218;SDS011;6674;49.152;11.918;2022-09-29T13:22:08;3.40;;;3.10;;
13218;SDS011;6674;49.152;11.918;2022-09-29T13:24:51;4.20;;;3.10;;
13218;SDS011;6674;49.152;11.918;2022-09-29T13:27:24;3.33;;;3.03;;
13218;SDS011;6674;49.152;11.918;2022-09-29T13:29:59;3.83;;;3.33;;
13218;SDS011;6674;49.152;11.918;2022-09-29T13:32:30;3.80;;;3.33;;
13218;SDS011;6674;49.152;11.918;2022-09-29T13:34:58;4.63;;;3.00;;
13218;SDS011;6674;49.152;11.918;2022-09-29T13:37:27;3.77;;;3.03;;
13218;SDS011;6674;49.152;11.918;2022-09-29T13:39:58;4.10;;;2.80;;
13218;SDS011;6674;49.152;11.918;2022-09-29T13:42:38;3.40;;;2.80;;
13218;SDS011;6674;49.152;11.918;2022-09-29T13:45:14;3.00;;;2.50;;
13218;SDS011;6674;49.152;11.918;2022-09-29T13:47:59;2.87;;;2.50;;
13218;SDS011;6674;49.152;11.918;2022-09-29T13:53:31;3.80;;;2.80;;
13218;SDS011;6674;49.152;11.918;2022-09-29T13:56:12;2.60;;;2.40;;
13218;SDS011;6674;49.152;11.918;2022-09-29T13:58:54;3.50;;;2.60;;
13218;SDS011;6674;49.152;11.918;2022-09-29T14:01:29;3.40;;;3.10;;
13218;SDS011;6674;49.152;11.918;2022-09-29T14:07:00;4.30;;;2.43;;
13218;SDS011;6674;49.152;11.918;2022-09-29T14:09:30;2.77;;;1.90;;
13218;SDS011;6674;49.152;11.918;2022-09-29T14:12:03;2.50;;;2.10;;
13218;SDS011;6674;49.152;11.918;2022-09-29T14:14:34;3.03;;;2.17;;
13218;SDS011;6674;49.152;11.918;2022-09-29T14:17:08;2.27;;;1.93;;
13218;SDS011;6674;49.152;11.918;2022-09-29T14:19:41;3.47;;;2.03;;
13218;SDS011;6674;49.152;11.918;2022-09-29T14:25:23;3.20;;;2.30;;
13218;SDS011;6674;49.152;11.918;2022-09-29T14:28:00;3.20;;;2.30;;
13218;SDS011;6674;49.152;11.918;2022-09-29T14:30:38;2.70;;;2.37;;
13218;SDS011;6674;49.152;11.918;2022-09-29T14:33:10;3.77;;;2.33;;
13218;SDS011;6674;49.152;11.918;2022-09-29T14:35:41;3.03;;;2.73;;
13218;SDS011;6674;49.152;11.918;2022-09-29T14:38:12;2.63;;;2.43;;
13218;SDS011;6674;49.152;11.918;2022-09-29T14:40:52;4.17;;;2.83;;
13218;SDS011;6674;49.152;11.918;2022-09-29T14:43:22;3.20;;;2.50;;
13218;SDS011;6674;49.152;11.918;2022-09-29T14:45:59;2.80;;;2.50;;
13218;SDS011;6674;49.152;11.918;2022-09-29T14:48:59;3.63;;;2.70;;
13218;SDS011;6674;49.152;11.918;2022-09-29T14:52:08;3.23;;;2.30;;
13218;SDS011;6674;49.152;11.918;2022-09-29T14:54:45;3.57;;;2.63;;
13218;SDS011;6674;49.152;11.918;2022-09-29T14:57:43;4.80;;;2.83;;
13218;SDS011;6674;49.152;11.918;2022-09-29T15:00:32;3.47;;;2.10;;
13218;SDS011;6674;49.152;11.918;2022-09-29T15:03:08;3.30;;;2.50;;
13218;SDS011;6674;49.152;11.918;2022-09-29T15:05:39;3.97;;;2.03;;
13218;SDS011;6674;49.152;11.918;2022-09-29T15:08:27;3.40;;;2.20;;
13218;SDS011;6674;49.152;11.918;2022-09-29T15:10:55;2.87;;;2.00;;
13218;SDS011;6674;49.152;11.918;2022-09-29T15:13:22;3.60;;;2.00;;
13218;SDS011;6674;49.152;11.918;2022-09-29T15:15:54;2.33;;;2.00;;
13218;SDS011;6674;49.152;11.918;2022-09-29T15:18:32;2.80;;;1.97;;
13218;SDS011;6674;49.152;11.918;2022-09-29T15:21:16;2.17;;;1.63;;
13218;SDS011;6674;49.152;11.918;2022-09-29T15:23:56;2.03;;;1.63;;
13218;SDS011;6674;49.152;11.918;2022-09-29T15:26:32;1.77;;;1.57;;
13218;SDS011;6674;49.152;11.918;2022-09-29T15:29:03;1.70;;;1.60;;
13218;SDS011;6674;49.152;11.918;2022-09-29T15:31:31;1.80;;;1.40;;
13218;SDS011;6674;49.152;11.918;2022-09-29T15:33:59;2.23;;;1.90;;